sensor_id;sensor_type;location;lat;lon;timestamp;P1;durP1;ratioP1;P2;durP2;ratioP2
19167;SDS011;9716;53.114;18.040;2023-04-01T00:01:09;7.10;;;4.30;;
19167;SDS011;9716;53.114;18.040;2023-04-01T00:03:40;12.80;;;4.53;;
19167;SDS011;9716;53.114;18.040;2023-04-01T00:06:09;10.45;;;4.18;;
19167;SDS011;9716;53.114;18.040;2023-04-01T00:08:38;6.63;;;3.92;;
19167;SDS011;9716;53.114;18.040;2023-04-01T00:11:08;7.22;;;3.88;;
19167;SDS011;9716;53.114;18.040;2023-04-01T00:13:37;9.13;;;4.40;;
19167;SDS011;9716;53.114;18.040;2023-04-01T00:16:05;8.60;;;5.13;;
19167;SDS011;9716;53.114;18.040;2023-04-01T00:18:46;6.03;;;3.83;;
19167;SDS011;9716;53.114;18.040;2023-04-01T00:21:15;9.00;;;5.70;;
19167;SDS011;9716;53.114;18.040;2023-04-01T00:23:43;11.55;;;5.32;;
19167;SDS011;9716;53.114;18.040;2023-04-01T00:26:13;11.10;;;5.80;;
19167;SDS011;9716;53.114;18.040;2023-04-01T00:28:45;15.10;;;6.00;;
19167;SDS011;9716;53.114;18.040;2023-04-01T00:31:14;14.30;;;6.28;;
19167;SDS011;9716;53.114;18.040;2023-04-01T00:33:42;10.15;;;6.05;;
19167;SDS011;9716;53.114;18.040;2023-04-01T00:36:11;9.73;;;5.18;;
19167;SDS011;9716;53.114;18.040;2023-04-01T00:38:41;10.85;;;6.80;;
19167;SDS011;9716;53.114;18.040;2023-04-01T00:41:10;14.00;;;7.32;;
19167;SDS011;9716;53.114;18.040;2023-04-01T00:43:43;11.88;;;6.30;;
19167;SDS011;9716;53.114;18.040;2023-04-01T00:46:13;11.98;;;6.90;;
19167;SDS011;9716;53.114;18.040;2023-04-01T00:48:42;12.68;;;6.45;;
19167;SDS011;9716;53.114;18.040;2023-04-01T00:51:15;13.05;;;6.95;;
19167;SDS011;9716;53.114;18.040;2023-04-01T00:53:48;13.90;;;6.20;;
19167;SDS011;9716;53.114;18.040;2023-04-01T00:56:19;12.25;;;5.75;;
19167;SDS011;9716;53.114;18.040;2023-04-01T00:58:54;11.85;;;6.50;;
19167;SDS011;9716;53.114;18.040;2023-04-01T01:01:27;16.52;;;6.70;;
19167;SDS011;9716;53.114;18.040;2023-04-01T01:03:57;16.17;;;7.38;;
19167;SDS011;9716;53.114;18.040;2023-04-01T01:06:30;17.20;;;8.18;;
19167;SDS011;9716;53.114;18.040;2023-04-01T01:09:16;13.65;;;6.47;;
19167;SDS011;9716;53.114;18.040;2023-04-01T01:11:58;11.70;;;6.03;;
19167;SDS011;9716;53.114;18.040;2023-04-01T01:14:36;17.45;;;6.70;;
19167;SDS011;9716;53.114;18.040;2023-04-01T01:17:13;10.68;;;5.95;;
19167;SDS011;9716;53.114;18.040;2023-04-01T01:23:03;16.35;;;7.68;;
19167;SDS011;9716;53.114;18.040;2023-04-01T01:25:50;13.48;;;6.68;;
19167;SDS011;9716;53.114;18.040;2023-04-01T01:28:31;14.05;;;7.10;;
19167;SDS011;9716;53.114;18.040;2023-04-01T01:31:11;12.10;;;6.47;;
19167;SDS011;9716;53.114;18.040;2023-04-01T01:33:51;12.18;;;6.97;;
19167;SDS011;9716;53.114;18.040;2023-04-01T01:36:32;12.45;;;6.80;;
19167;SDS011;9716;53.114;18.040;2023-04-01T01:39:02;13.02;;;6.93;;
19167;SDS011;9716;53.114;18.040;2023-04-01T01:41:32;19.08;;;8.07;;
19167;SDS011;9716;53.114;18.040;2023-04-01T01:44:02;15.23;;;7.55;;
19167;SDS011;9716;53.114;18.040;2023-04-01T01:46:34;15.93;;;8.13;;
19167;SDS011;9716;53.114;18.040;2023-04-01T01:49:04;15.65;;;8.48;;
19167;SDS011;9716;53.114;18.040;2023-04-01T01:51:35;18.30;;;7.78;;
19167;SDS011;9716;53.114;18.040;2023-04-01T01:54:04;15.50;;;8.30;;
19167;SDS011;9716;53.114;18.040;2023-04-01T01:56:32;14.27;;;7.60;;
19167;SDS011;9716;53.114;18.040;2023-04-01T01:59:03;15.32;;;8.13;;
19167;SDS011;9716;53.114;18.040;2023-04-01T02:01:37;11.80;;;6.75;;
19167;SDS011;9716;53.114;18.040;2023-04-01T02:04:09;12.80;;;7.32;;
19167;SDS011;9716;53.114;18.040;2023-04-01T02:06:42;13.48;;;7.00;;
19167;SDS011;9716;53.114;18.040;2023-04-01T02:09:14;15.73;;;7.07;;
19167;SDS011;9716;53.114;18.040;2023-04-01T02:11:44;12.65;;;7.22;;
19167;SDS011;9716;53.114;18.040;2023-04-01T02:14:17;10.15;;;6.00;;
19167;SDS011;9716;53.114;18.040;2023-04-01T02:16:49;16.88;;;6.38;;
19167;SDS011;9716;53.114;18.040;2023-04-01T02:19:21;11.55;;;6.05;;
19167;SDS011;9716;53.114;18.040;2023-04-01T02:22:00;14.30;;;6.65;;
19167;SDS011;9716;53.114;18.040;2023-04-01T02:24:31;12.02;;;6.70;;
19167;SDS011;9716;53.114;18.040;2023-04-01T02:27:03;11.50;;;6.40;;
19167;SDS011;9716;53.114;18.040;2023-04-01T02:29:31;21.73;;;7.90;;
19167;SDS011;9716;53.114;18.040;2023-04-01T02:32:00;13.18;;;5.82;;
19167;SDS011;9716;53.114;18.040;2023-04-01T02:34:30;10.35;;;5.90;;
19167;SDS011;9716;53.114;18.040;2023-04-01T02:37:00;11.05;;;6.55;;
19167;SDS011;9716;53.114;18.040;2023-04-01T02:39:29;13.43;;;6.45;;
19167;SDS011;9716;53.114;18.040;2023-04-01T02:41:57;8.88;;;5.68;;
19167;SDS011;9716;53.114;18.040;2023-04-01T02:44:26;12.10;;;6.32;;
19167;SDS011;9716;53.114;18.040;2023-04-01T02:46:54;9.70;;;6.45;;
19167;SDS011;9716;53.114;18.040;2023-04-01T02:49:23;9.32;;;6.25;;
19167;SDS011;9716;53.114;18.040;2023-04-01T02:51:51;13.02;;;5.30;;
19167;SDS011;9716;53.114;18.040;2023-04-01T02:54:21;14.00;;;6.55;;
19167;SDS011;9716;53.114;18.040;2023-04-01T02:56:49;9.10;;;5.63;;
19167;SDS011;9716;53.114;18.040;2023-04-01T02:59:18;10.88;;;5.90;;
19167;SDS011;9716;53.114;18.040;2023-04-01T03:01:46;9.18;;;5.78;;
19167;SDS011;9716;53.114;18.040;2023-04-01T03:04:14;14.13;;;6.63;;
19167;SDS011;9716;53.114;18.040;2023-04-01T03:06:43;9.30;;;5.32;;
19167;SDS011;9716;53.114;18.040;2023-04-01T03:09:13;9.25;;;5.03;;
19167;SDS011;9716;53.114;18.040;2023-04-01T03:11:43;10.68;;;4.88;;
19167;SDS011;9716;53.114;18.040;2023-04-01T03:14:12;10.48;;;6.00;;
19167;SDS011;9716;53.114;18.040;2023-04-01T03:16:41;8.13;;;5.35;;
19167;SDS011;9716;53.114;18.040;2023-04-01T03:19:09;11.27;;;5.07;;
19167;SDS011;9716;53.114;18.040;2023-04-01T03:21:38;10.05;;;5.25;;
19167;SDS011;9716;53.114;18.040;2023-04-01T03:24:07;10.57;;;5.47;;
19167;SDS011;9716;53.114;18.040;2023-04-01T03:26:35;7.50;;;4.60;;
19167;SDS011;9716;53.114;18.040;2023-04-01T03:29:05;10.93;;;5.57;;
19167;SDS011;9716;53.114;18.040;2023-04-01T03:31:33;9.13;;;4.65;;
19167;SDS011;9716;53.114;18.040;2023-04-01T03:34:02;10.07;;;5.82;;
19167;SDS011;9716;53.114;18.040;2023-04-01T03:36:30;10.15;;;5.47;;
19167;SDS011;9716;53.114;18.040;2023-04-01T03:38:58;11.88;;;5.80;;
19167;SDS011;9716;53.114;18.040;2023-04-01T03:41:27;11.77;;;5.55;;
19167;SDS011;9716;53.114;18.040;2023-04-01T03:43:56;13.52;;;5.55;;
19167;SDS011;9716;53.114;18.040;2023-04-01T03:46:25;11.20;;;4.82;;
19167;SDS011;9716;53.114;18.040;2023-04-01T03:48:54;9.05;;;4.80;;
19167;SDS011;9716;53.114;18.040;2023-04-01T03:51:22;10.75;;;4.72;;
19167;SDS011;9716;53.114;18.040;2023-04-01T03:53:51;13.88;;;4.82;;
19167;SDS011;9716;53.114;18.040;2023-04-01T03:56:19;12.52;;;5.55;;
19167;SDS011;9716;53.114;18.040;2023-04-01T03:58:48;9.85;;;4.50;;
19167;SDS011;9716;53.114;18.040;2023-04-01T04:01:17;9.45;;;4.78;;
19167;SDS011;9716;53.114;18.040;2023-04-01T04:03:49;11.25;;;5.03;;
19167;SDS011;9716;53.114;18.040;2023-04-01T04:06:18;12.60;;;4.65;;
19167;SDS011;9716;53.114;18.040;2023-04-01T04:08:47;7.30;;;3.88;;
19167;SDS011;9716;53.114;18.040;2023-04-01T04:11:16;9.07;;;3.83;;
19167;SDS011;9716;53.114;18.040;2023-04-01T04:13:44;11.13;;;4.45;;
19167;SDS011;9716;53.114;18.040;2023-04-01T04:16:14;7.78;;;3.85;;
19167;SDS011;9716;53.114;18.040;2023-04-01T04:18:43;7.95;;;4.07;;
19167;SDS011;9716;53.114;18.040;2023-04-01T04:21:14;9.05;;;4.47;;
19167;SDS011;9716;53.114;18.040;2023-04-01T04:23:46;10.25;;;4.65;;
19167;SDS011;9716;53.114;18.040;2023-04-01T04:26:18;10.50;;;4.68;;
19167;SDS011;9716;53.114;18.040;2023-04-01T04:28:46;12.35;;;4.50;;
19167;SDS011;9716;53.114;18.040;2023-04-01T04:31:17;14.05;;;4.38;;
19167;SDS011;9716;53.114;18.040;2023-04-01T04:33:49;12.75;;;5.13;;
19167;SDS011;9716;53.114;18.040;2023-04-01T04:36:19;13.52;;;5.57;;
19167;SDS011;9716;53.114;18.040;2023-04-01T04:38:49;17.05;;;5.38;;
19167;SDS011;9716;53.114;18.040;2023-04-01T04:41:21;12.00;;;6.15;;
19167;SDS011;9716;53.114;18.040;2023-04-01T04:43:56;12.18;;;6.45;;
19167;SDS011;9716;53.114;18.040;2023-04-01T04:46:25;16.40;;;6.88;;
19167;SDS011;9716;53.114;18.040;2023-04-01T04:48:55;15.40;;;7.15;;
19167;SDS011;9716;53.114;18.040;2023-04-01T04:51:26;16.77;;;7.85;;
19167;SDS011;9716;53.114;18.040;2023-04-01T04:53:55;16.77;;;7.07;;
19167;SDS011;9716;53.114;18.040;2023-04-01T04:56:24;16.00;;;7.55;;
19167;SDS011;9716;53.114;18.040;2023-04-01T04:58:55;18.67;;;8.23;;
19167;SDS011;9716;53.114;18.040;2023-04-01T05:01:24;20.48;;;8.90;;
19167;SDS011;9716;53.114;18.040;2023-04-01T05:03:54;17.15;;;7.93;;
19167;SDS011;9716;53.114;18.040;2023-04-01T05:06:23;18.30;;;7.78;;
19167;SDS011;9716;53.114;18.040;2023-04-01T05:08:54;22.05;;;9.82;;
19167;SDS011;9716;53.114;18.040;2023-04-01T05:11:23;23.17;;;8.63;;
19167;SDS011;9716;53.114;18.040;2023-04-01T05:13:52;26.65;;;8.25;;
19167;SDS011;9716;53.114;18.040;2023-04-01T05:16:21;19.15;;;7.85;;
19167;SDS011;9716;53.114;18.040;2023-04-01T05:18:52;25.00;;;7.90;;
19167;SDS011;9716;53.114;18.040;2023-04-01T05:21:20;18.65;;;7.55;;
19167;SDS011;9716;53.114;18.040;2023-04-01T05:23:58;16.25;;;8.77;;
19167;SDS011;9716;53.114;18.040;2023-04-01T05:26:28;16.67;;;7.72;;
19167;SDS011;9716;53.114;18.040;2023-04-01T05:28:58;14.43;;;7.00;;
19167;SDS011;9716;53.114;18.040;2023-04-01T05:31:27;16.45;;;7.15;;
19167;SDS011;9716;53.114;18.040;2023-04-01T05:33:56;14.65;;;6.95;;
19167;SDS011;9716;53.114;18.040;2023-04-01T05:36:25;18.60;;;8.82;;
19167;SDS011;9716;53.114;18.040;2023-04-01T05:38:55;19.42;;;9.57;;
19167;SDS011;9716;53.114;18.040;2023-04-01T05:41:25;18.67;;;8.60;;
19167;SDS011;9716;53.114;18.040;2023-04-01T05:43:53;22.95;;;9.50;;
19167;SDS011;9716;53.114;18.040;2023-04-01T05:46:22;18.67;;;8.77;;
19167;SDS011;9716;53.114;18.040;2023-04-01T05:48:51;20.60;;;9.52;;
19167;SDS011;9716;53.114;18.040;2023-04-01T05:51:22;21.92;;;8.80;;
19167;SDS011;9716;53.114;18.040;2023-04-01T05:53:52;22.77;;;9.23;;
19167;SDS011;9716;53.114;18.040;2023-04-01T05:56:20;16.70;;;8.40;;
19167;SDS011;9716;53.114;18.040;2023-04-01T05:58:52;18.67;;;9.65;;
19167;SDS011;9716;53.114;18.040;2023-04-01T06:01:22;21.35;;;9.80;;
19167;SDS011;9716;53.114;18.040;2023-04-01T06:03:50;18.92;;;9.25;;
19167;SDS011;9716;53.114;18.040;2023-04-01T06:06:20;19.55;;;9.27;;
19167;SDS011;9716;53.114;18.040;2023-04-01T06:08:53;22.70;;;9.02;;
19167;SDS011;9716;53.114;18.040;2023-04-01T06:11:26;21.13;;;9.20;;
19167;SDS011;9716;53.114;18.040;2023-04-01T06:14:10;16.13;;;8.05;;
19167;SDS011;9716;53.114;18.040;2023-04-01T06:16:50;20.42;;;8.77;;
19167;SDS011;9716;53.114;18.040;2023-04-01T06:19:34;19.75;;;8.07;;
19167;SDS011;9716;53.114;18.040;2023-04-01T06:25:22;17.65;;;8.80;;
19167;SDS011;9716;53.114;18.040;2023-04-01T06:28:07;17.85;;;7.72;;
19167;SDS011;9716;53.114;18.040;2023-04-01T06:31:02;15.13;;;7.32;;
19167;SDS011;9716;53.114;18.040;2023-04-01T06:33:44;14.35;;;6.03;;
19167;SDS011;9716;53.114;18.040;2023-04-01T06:36:25;14.48;;;6.97;;
19167;SDS011;9716;53.114;18.040;2023-04-01T06:39:17;11.35;;;6.05;;
19167;SDS011;9716;53.114;18.040;2023-04-01T06:42:05;12.05;;;6.72;;
19167;SDS011;9716;53.114;18.040;2023-04-01T06:44:47;14.55;;;5.90;;
19167;SDS011;9716;53.114;18.040;2023-04-01T06:47:28;9.93;;;5.80;;
19167;SDS011;9716;53.114;18.040;2023-04-01T06:50:11;12.80;;;5.90;;
19167;SDS011;9716;53.114;18.040;2023-04-01T06:52:48;10.68;;;5.50;;
19167;SDS011;9716;53.114;18.040;2023-04-01T06:55:27;11.02;;;5.82;;
19167;SDS011;9716;53.114;18.040;2023-04-01T06:58:05;10.07;;;5.28;;
19167;SDS011;9716;53.114;18.040;2023-04-01T07:00:39;13.07;;;5.35;;
19167;SDS011;9716;53.114;18.040;2023-04-01T07:03:15;12.63;;;5.78;;
19167;SDS011;9716;53.114;18.040;2023-04-01T07:05:48;12.13;;;4.88;;
19167;SDS011;9716;53.114;18.040;2023-04-01T07:08:18;15.00;;;6.57;;
19167;SDS011;9716;53.114;18.040;2023-04-01T07:10:51;9.88;;;5.47;;
19167;SDS011;9716;53.114;18.040;2023-04-01T07:13:24;9.60;;;5.50;;
19167;SDS011;9716;53.114;18.040;2023-04-01T07:16:05;10.73;;;5.40;;
19167;SDS011;9716;53.114;18.040;2023-04-01T07:18:43;10.15;;;4.97;;
19167;SDS011;9716;53.114;18.040;2023-04-01T07:21:19;13.50;;;5.38;;
19167;SDS011;9716;53.114;18.040;2023-04-01T07:23:54;12.57;;;5.22;;
19167;SDS011;9716;53.114;18.040;2023-04-01T07:26:27;10.85;;;5.68;;
19167;SDS011;9716;53.114;18.040;2023-04-01T07:28:56;10.65;;;5.90;;
19167;SDS011;9716;53.114;18.040;2023-04-01T07:31:39;8.35;;;5.53;;
19167;SDS011;9716;53.114;18.040;2023-04-01T07:34:28;16.20;;;6.45;;
19167;SDS011;9716;53.114;18.040;2023-04-01T07:37:03;15.27;;;7.05;;
19167;SDS011;9716;53.114;18.040;2023-04-01T07:39:39;12.55;;;5.40;;
19167;SDS011;9716;53.114;18.040;2023-04-01T07:42:17;12.43;;;6.10;;
19167;SDS011;9716;53.114;18.040;2023-04-01T07:44:58;11.32;;;5.28;;
19167;SDS011;9716;53.114;18.040;2023-04-01T07:47:38;10.88;;;6.45;;
19167;SDS011;9716;53.114;18.040;2023-04-01T07:50:16;11.45;;;5.70;;
19167;SDS011;9716;53.114;18.040;2023-04-01T07:52:51;13.82;;;6.18;;
19167;SDS011;9716;53.114;18.040;2023-04-01T07:55:28;17.38;;;7.13;;
19167;SDS011;9716;53.114;18.040;2023-04-01T07:58:04;9.05;;;5.60;;
19167;SDS011;9716;53.114;18.040;2023-04-01T08:00:39;9.82;;;5.85;;
19167;SDS011;9716;53.114;18.040;2023-04-01T08:03:17;12.25;;;6.30;;
19167;SDS011;9716;53.114;18.040;2023-04-01T08:06:00;13.70;;;6.32;;
19167;SDS011;9716;53.114;18.040;2023-04-01T08:08:36;11.55;;;5.85;;
19167;SDS011;9716;53.114;18.040;2023-04-01T08:11:16;9.48;;;5.50;;
19167;SDS011;9716;53.114;18.040;2023-04-01T08:13:58;11.00;;;5.70;;
19167;SDS011;9716;53.114;18.040;2023-04-01T08:16:35;10.00;;;5.20;;
19167;SDS011;9716;53.114;18.040;2023-04-01T08:19:09;10.73;;;5.65;;
19167;SDS011;9716;53.114;18.040;2023-04-01T08:21:49;8.77;;;5.95;;
19167;SDS011;9716;53.114;18.040;2023-04-01T08:24:23;15.13;;;6.57;;
19167;SDS011;9716;53.114;18.040;2023-04-01T08:27:13;14.95;;;6.25;;
19167;SDS011;9716;53.114;18.040;2023-04-01T08:29:46;14.45;;;6.13;;
19167;SDS011;9716;53.114;18.040;2023-04-01T08:32:21;10.23;;;6.10;;
19167;SDS011;9716;53.114;18.040;2023-04-01T08:34:55;10.48;;;5.32;;
19167;SDS011;9716;53.114;18.040;2023-04-01T08:37:35;11.80;;;5.90;;
19167;SDS011;9716;53.114;18.040;2023-04-01T08:40:12;11.80;;;5.85;;
19167;SDS011;9716;53.114;18.040;2023-04-01T08:42:59;10.13;;;5.65;;
19167;SDS011;9716;53.114;18.040;2023-04-01T08:45:44;5.75;;;4.40;;
19167;SDS011;9716;53.114;18.040;2023-04-01T08:48:30;10.23;;;6.15;;
19167;SDS011;9716;53.114;18.040;2023-04-01T08:51:39;9.98;;;4.75;;
19167;SDS011;9716;53.114;18.040;2023-04-01T08:54:24;11.40;;;5.15;;
19167;SDS011;9716;53.114;18.040;2023-04-01T08:57:04;13.65;;;5.43;;
19167;SDS011;9716;53.114;18.040;2023-04-01T08:59:45;8.68;;;5.53;;
19167;SDS011;9716;53.114;18.040;2023-04-01T09:02:26;7.50;;;3.80;;
19167;SDS011;9716;53.114;18.040;2023-04-01T09:05:22;9.07;;;3.65;;
19167;SDS011;9716;53.114;18.040;2023-04-01T09:08:06;7.30;;;4.25;;
19167;SDS011;9716;53.114;18.040;2023-04-01T09:10:57;8.25;;;4.10;;
19167;SDS011;9716;53.114;18.040;2023-04-01T09:13:37;5.28;;;3.58;;
19167;SDS011;9716;53.114;18.040;2023-04-01T09:16:25;8.35;;;4.05;;
19167;SDS011;9716;53.114;18.040;2023-04-01T09:19:06;8.75;;;3.53;;
19167;SDS011;9716;53.114;18.040;2023-04-01T09:21:57;6.72;;;3.35;;
19167;SDS011;9716;53.114;18.040;2023-04-01T09:24:41;4.10;;;3.03;;
19167;SDS011;9716;53.114;18.040;2023-04-01T09:27:37;10.23;;;3.63;;
19167;SDS011;9716;53.114;18.040;2023-04-01T09:33:10;4.55;;;3.08;;
19167;SDS011;9716;53.114;18.040;2023-04-01T09:35:56;5.43;;;3.40;;
19167;SDS011;9716;53.114;18.040;2023-04-01T09:38:44;3.28;;;2.70;;
19167;SDS011;9716;53.114;18.040;2023-04-01T09:41:27;4.57;;;2.90;;
19167;SDS011;9716;53.114;18.040;2023-04-01T09:44:02;4.47;;;2.22;;
19167;SDS011;9716;53.114;18.040;2023-04-01T09:46:36;5.97;;;2.90;;
19167;SDS011;9716;53.114;18.040;2023-04-01T09:49:26;5.10;;;2.45;;
19167;SDS011;9716;53.114;18.040;2023-04-01T09:52:18;2.83;;;2.03;;
19167;SDS011;9716;53.114;18.040;2023-04-01T09:54:59;3.15;;;2.47;;
19167;SDS011;9716;53.114;18.040;2023-04-01T09:57:47;5.03;;;2.90;;
19167;SDS011;9716;53.114;18.040;2023-04-01T10:00:35;4.13;;;2.30;;
19167;SDS011;9716;53.114;18.040;2023-04-01T10:03:26;4.03;;;2.40;;
19167;SDS011;9716;53.114;18.040;2023-04-01T10:09:54;3.88;;;2.40;;
19167;SDS011;9716;53.114;18.040;2023-04-01T10:19:12;2.97;;;1.95;;
19167;SDS011;9716;53.114;18.040;2023-04-01T10:22:16;2.42;;;2.05;;
19167;SDS011;9716;53.114;18.040;2023-04-01T10:25:05;5.85;;;2.40;;
19167;SDS011;9716;53.114;18.040;2023-04-01T10:30:57;4.18;;;2.58;;
19167;SDS011;9716;53.114;18.040;2023-04-01T10:37:05;3.15;;;2.42;;
19167;SDS011;9716;53.114;18.040;2023-04-01T10:42:59;3.60;;;2.40;;
19167;SDS011;9716;53.114;18.040;2023-04-01T10:55:31;12.05;;;3.85;;
19167;SDS011;9716;53.114;18.040;2023-04-01T10:58:30;5.93;;;3.35;;
19167;SDS011;9716;53.114;18.040;2023-04-01T11:05:05;5.55;;;3.17;;
19167;SDS011;9716;53.114;18.040;2023-04-01T11:11:28;6.00;;;3.08;;
19167;SDS011;9716;53.114;18.040;2023-04-01T11:14:30;5.03;;;2.53;;
19167;SDS011;9716;53.114;18.040;2023-04-01T11:20:36;4.22;;;2.47;;
19167;SDS011;9716;53.114;18.040;2023-04-01T11:26:37;4.47;;;2.80;;
19167;SDS011;9716;53.114;18.040;2023-04-01T11:29:35;4.22;;;2.20;;
19167;SDS011;9716;53.114;18.040;2023-04-01T11:32:27;9.40;;;2.88;;
19167;SDS011;9716;53.114;18.040;2023-04-01T11:35:18;3.97;;;2.83;;
19167;SDS011;9716;53.114;18.040;2023-04-01T11:37:58;6.40;;;3.25;;
19167;SDS011;9716;53.114;18.040;2023-04-01T11:40:35;4.43;;;3.00;;
19167;SDS011;9716;53.114;18.040;2023-04-01T11:43:14;6.65;;;3.40;;
19167;SDS011;9716;53.114;18.040;2023-04-01T11:46:00;5.07;;;2.80;;
19167;SDS011;9716;53.114;18.040;2023-04-01T11:48:40;5.45;;;2.90;;
19167;SDS011;9716;53.114;18.040;2023-04-01T11:54:34;4.15;;;2.15;;
19167;SDS011;9716;53.114;18.040;2023-04-01T11:57:23;7.72;;;3.10;;
19167;SDS011;9716;53.114;18.040;2023-04-01T12:00:13;8.23;;;4.05;;
19167;SDS011;9716;53.114;18.040;2023-04-01T12:02:52;5.78;;;3.10;;
19167;SDS011;9716;53.114;18.040;2023-04-01T12:05:41;7.00;;;2.92;;
19167;SDS011;9716;53.114;18.040;2023-04-01T12:08:18;5.45;;;2.85;;
19167;SDS011;9716;53.114;18.040;2023-04-01T12:10:57;6.10;;;2.78;;
19167;SDS011;9716;53.114;18.040;2023-04-01T12:13:37;3.95;;;2.55;;
19167;SDS011;9716;53.114;18.040;2023-04-01T12:16:29;5.82;;;2.20;;
19167;SDS011;9716;53.114;18.040;2023-04-01T12:19:13;3.28;;;2.20;;
19167;SDS011;9716;53.114;18.040;2023-04-01T12:21:48;2.75;;;2.00;;
19167;SDS011;9716;53.114;18.040;2023-04-01T12:27:20;2.90;;;2.20;;
19167;SDS011;9716;53.114;18.040;2023-04-01T12:33:14;3.17;;;2.38;;
19167;SDS011;9716;53.114;18.040;2023-04-01T12:36:08;6.13;;;2.13;;
19167;SDS011;9716;53.114;18.040;2023-04-01T12:38:49;2.67;;;1.98;;
19167;SDS011;9716;53.114;18.040;2023-04-01T12:41:32;3.97;;;2.15;;
19167;SDS011;9716;53.114;18.040;2023-04-01T12:47:04;3.88;;;2.47;;
19167;SDS011;9716;53.114;18.040;2023-04-01T12:49:54;2.15;;;1.77;;
19167;SDS011;9716;53.114;18.040;2023-04-01T12:52:31;3.88;;;1.77;;
19167;SDS011;9716;53.114;18.040;2023-04-01T12:55:19;2.45;;;1.80;;
19167;SDS011;9716;53.114;18.040;2023-04-01T13:01:15;2.35;;;1.77;;
19167;SDS011;9716;53.114;18.040;2023-04-01T13:07:05;6.30;;;2.38;;
19167;SDS011;9716;53.114;18.040;2023-04-01T13:09:56;2.75;;;1.73;;
19167;SDS011;9716;53.114;18.040;2023-04-01T13:12:39;2.25;;;1.88;;
19167;SDS011;9716;53.114;18.040;2023-04-01T13:15:23;2.58;;;1.73;;
19167;SDS011;9716;53.114;18.040;2023-04-01T13:17:58;2.92;;;2.15;;
19167;SDS011;9716;53.114;18.040;2023-04-01T13:20:43;4.05;;;2.10;;
19167;SDS011;9716;53.114;18.040;2023-04-01T13:23:24;2.35;;;1.85;;
19167;SDS011;9716;53.114;18.040;2023-04-01T13:26:04;7.75;;;1.45;;
19167;SDS011;9716;53.114;18.040;2023-04-01T13:28:42;3.00;;;1.75;;
19167;SDS011;9716;53.114;18.040;2023-04-01T13:31:20;4.13;;;2.08;;
19167;SDS011;9716;53.114;18.040;2023-04-01T13:34:06;2.85;;;2.03;;
19167;SDS011;9716;53.114;18.040;2023-04-01T13:36:48;3.83;;;1.98;;
19167;SDS011;9716;53.114;18.040;2023-04-01T13:39:27;3.22;;;2.08;;
19167;SDS011;9716;53.114;18.040;2023-04-01T13:42:11;2.70;;;1.90;;
19167;SDS011;9716;53.114;18.040;2023-04-01T13:44:46;2.88;;;2.10;;
19167;SDS011;9716;53.114;18.040;2023-04-01T13:47:40;4.00;;;2.10;;
19167;SDS011;9716;53.114;18.040;2023-04-01T13:53:52;5.18;;;2.30;;
19167;SDS011;9716;53.114;18.040;2023-04-01T13:56:46;3.30;;;2.05;;
19167;SDS011;9716;53.114;18.040;2023-04-01T14:02:40;4.70;;;2.35;;
19167;SDS011;9716;53.114;18.040;2023-04-01T14:05:25;2.85;;;2.25;;
19167;SDS011;9716;53.114;18.040;2023-04-01T14:08:15;3.25;;;2.03;;
19167;SDS011;9716;53.114;18.040;2023-04-01T14:10:57;4.20;;;2.50;;
19167;SDS011;9716;53.114;18.040;2023-04-01T14:13:41;3.80;;;2.03;;
19167;SDS011;9716;53.114;18.040;2023-04-01T14:16:25;3.05;;;1.73;;
19167;SDS011;9716;53.114;18.040;2023-04-01T14:19:08;3.13;;;2.33;;
19167;SDS011;9716;53.114;18.040;2023-04-01T14:21:52;2.92;;;2.00;;
19167;SDS011;9716;53.114;18.040;2023-04-01T14:24:36;5.18;;;2.47;;
19167;SDS011;9716;53.114;18.040;2023-04-01T14:27:27;4.55;;;2.90;;
19167;SDS011;9716;53.114;18.040;2023-04-01T14:30:13;4.35;;;1.98;;
19167;SDS011;9716;53.114;18.040;2023-04-01T14:32:54;4.72;;;2.78;;
19167;SDS011;9716;53.114;18.040;2023-04-01T14:35:31;2.90;;;2.13;;
19167;SDS011;9716;53.114;18.040;2023-04-01T14:38:14;4.15;;;2.20;;
19167;SDS011;9716;53.114;18.040;2023-04-01T14:41:00;3.25;;;1.92;;
19167;SDS011;9716;53.114;18.040;2023-04-01T14:43:48;3.42;;;2.30;;
19167;SDS011;9716;53.114;18.040;2023-04-01T14:46:53;2.85;;;2.08;;
19167;SDS011;9716;53.114;18.040;2023-04-01T14:50:02;4.65;;;2.58;;
19167;SDS011;9716;53.114;18.040;2023-04-01T14:52:35;5.18;;;2.97;;
19167;SDS011;9716;53.114;18.040;2023-04-01T14:55:15;5.82;;;2.30;;
19167;SDS011;9716;53.114;18.040;2023-04-01T14:57:58;5.47;;;2.83;;
19167;SDS011;9716;53.114;18.040;2023-04-01T15:00:48;4.78;;;2.78;;
19167;SDS011;9716;53.114;18.040;2023-04-01T15:03:26;3.33;;;2.53;;
19167;SDS011;9716;53.114;18.040;2023-04-01T15:06:02;1.92;;;1.70;;
19167;SDS011;9716;53.114;18.040;2023-04-01T15:08:50;3.05;;;2.30;;
19167;SDS011;9716;53.114;18.040;2023-04-01T15:11:23;3.40;;;2.40;;
19167;SDS011;9716;53.114;18.040;2023-04-01T15:16:57;3.13;;;2.50;;
19167;SDS011;9716;53.114;18.040;2023-04-01T15:19:38;3.13;;;2.13;;
19167;SDS011;9716;53.114;18.040;2023-04-01T15:22:27;4.13;;;2.15;;
19167;SDS011;9716;53.114;18.040;2023-04-01T15:25:15;8.02;;;2.90;;
19167;SDS011;9716;53.114;18.040;2023-04-01T15:27:52;4.80;;;2.72;;
19167;SDS011;9716;53.114;18.040;2023-04-01T15:30:28;8.63;;;2.75;;
19167;SDS011;9716;53.114;18.040;2023-04-01T15:36:18;4.72;;;2.80;;
19167;SDS011;9716;53.114;18.040;2023-04-01T15:38:57;2.92;;;2.20;;
19167;SDS011;9716;53.114;18.040;2023-04-01T15:41:35;6.28;;;2.40;;
19167;SDS011;9716;53.114;18.040;2023-04-01T15:44:40;2.58;;;2.00;;
19167;SDS011;9716;53.114;18.040;2023-04-01T15:47:34;2.70;;;1.85;;
19167;SDS011;9716;53.114;18.040;2023-04-01T15:59:20;2.78;;;1.90;;
19167;SDS011;9716;53.114;18.040;2023-04-01T16:02:13;2.25;;;1.85;;
19167;SDS011;9716;53.114;18.040;2023-04-01T16:04:51;6.15;;;1.83;;
19167;SDS011;9716;53.114;18.040;2023-04-01T16:07:30;2.83;;;1.90;;
19167;SDS011;9716;53.114;18.040;2023-04-01T16:10:19;3.20;;;2.10;;
19167;SDS011;9716;53.114;18.040;2023-04-01T16:13:06;3.13;;;2.08;;
19167;SDS011;9716;53.114;18.040;2023-04-01T16:15:50;2.88;;;1.65;;
19167;SDS011;9716;53.114;18.040;2023-04-01T16:18:32;6.05;;;2.25;;
19167;SDS011;9716;53.114;18.040;2023-04-01T16:21:13;5.03;;;3.83;;
19167;SDS011;9716;53.114;18.040;2023-04-01T16:23:53;6.15;;;3.22;;
19167;SDS011;9716;53.114;18.040;2023-04-01T16:26:26;6.22;;;2.90;;
19167;SDS011;9716;53.114;18.040;2023-04-01T16:29:07;10.40;;;4.15;;
19167;SDS011;9716;53.114;18.040;2023-04-01T16:31:42;5.38;;;4.20;;
19167;SDS011;9716;53.114;18.040;2023-04-01T16:34:15;12.15;;;6.75;;
19167;SDS011;9716;53.114;18.040;2023-04-01T16:36:47;9.48;;;5.20;;
19167;SDS011;9716;53.114;18.040;2023-04-01T16:39:28;13.07;;;7.80;;
19167;SDS011;9716;53.114;18.040;2023-04-01T16:42:13;12.30;;;4.88;;
19167;SDS011;9716;53.114;18.040;2023-04-01T16:44:52;4.85;;;3.47;;
19167;SDS011;9716;53.114;18.040;2023-04-01T16:47:27;4.72;;;3.17;;
19167;SDS011;9716;53.114;18.040;2023-04-01T16:49:58;4.18;;;2.65;;
19167;SDS011;9716;53.114;18.040;2023-04-01T16:52:42;2.85;;;2.08;;
19167;SDS011;9716;53.114;18.040;2023-04-01T16:55:34;3.90;;;2.45;;
19167;SDS011;9716;53.114;18.040;2023-04-01T16:58:09;9.25;;;3.83;;
19167;SDS011;9716;53.114;18.040;2023-04-01T17:00:44;4.63;;;3.08;;
19167;SDS011;9716;53.114;18.040;2023-04-01T17:03:20;5.65;;;3.42;;
19167;SDS011;9716;53.114;18.040;2023-04-01T17:06:07;11.60;;;5.68;;
19167;SDS011;9716;53.114;18.040;2023-04-01T17:08:50;64.50;;;24.52;;
19167;SDS011;9716;53.114;18.040;2023-04-01T17:11:35;29.75;;;14.48;;
19167;SDS011;9716;53.114;18.040;2023-04-01T17:14:11;57.65;;;24.65;;
19167;SDS011;9716;53.114;18.040;2023-04-01T17:16:52;39.08;;;16.75;;